Time;durP1;ratioP1;P1;durP2;ratioP2;P2;SDS_P1;SDS_P2;PMS_P1;PMS_P2;Temp;Humidity;BMP_temperature;BMP_pressure;BME280_temperature;BME280_humidity;BME280_pressure;Samples;Min_cycle;Max_cycle;Signal;HPM_P1;HPM_P2
2023/07/31 00:02:19;;;;;;;0.20;0.20;;;;;;;14.99;100.00;100911.38;5054077;28;20362;-46
2023/07/31 00:04:44;;;;;;;0.20;0.20;;;;;;;14.96;100.00;100908.72;5053359;28;20431;-48
2023/07/31 00:07:09;;;;;;;0.10;0.10;;;;;;;14.96;100.00;100917.41;5053572;28;20025;-45
2023/07/31 00:09:35;;;;;;;0.20;0.20;;;;;;;14.95;100.00;100920.84;5053829;28;20037;-49
2023/07/31 00:12:00;;;;;;;0.10;0.10;;;;;;;14.96;100.00;100913.94;5053471;28;20420;-49
2023/07/31 00:14:25;;;;;;;0.20;0.20;;;;;;;14.95;100.00;100912.19;5052996;28;20107;-49
2023/07/31 00:16:51;;;;;;;0.10;0.10;;;;;;;14.96;100.00;100912.22;5053820;28;20039;-49
2023/07/31 00:19:16;;;;;;;0.20;0.20;;;;;;;14.94;100.00;100913.91;5053326;28;20021;-48
2023/07/31 00:21:41;;;;;;;0.10;0.10;;;;;;;14.95;100.00;100907.88;5052682;28;20064;-48
2023/07/31 00:24:07;;;;;;;0.20;0.20;;;;;;;14.94;100.00;100902.66;5053434;28;20040;-47
2023/07/31 00:26:32;;;;;;;0.20;0.20;;;;;;;14.96;100.00;100913.94;5052591;28;20570;-45
2023/07/31 00:28:57;;;;;;;0.10;0.10;;;;;;;14.93;100.00;100906.97;5053408;28;20451;-48
2023/07/31 00:31:23;;;;;;;0.20;0.20;;;;;;;14.95;100.00;100904.38;5053297;28;20041;-45
2023/07/31 00:33:48;;;;;;;0.10;0.10;;;;;;;14.95;100.00;100901.78;5052586;28;20049;-48
2023/07/31 00:36:13;;;;;;;0.20;0.20;;;;;;;14.94;100.00;100908.72;5053193;28;20119;-48
2023/07/31 00:38:39;;;;;;;0.20;0.20;;;;;;;14.95;100.00;100899.19;5053005;28;20033;-49
2023/07/31 00:41:04;;;;;;;0.10;0.10;;;;;;;14.94;100.00;100898.34;5052598;28;20029;-46
2023/07/31 00:43:29;;;;;;;0.10;0.10;;;;;;;14.94;100.00;100897.47;5052595;28;20080;-49
2023/07/31 00:45:55;;;;;;;0.10;0.10;;;;;;;14.94;100.00;100897.47;5053204;28;20519;-49
2023/07/31 00:48:21;;;;;;;0.20;0.20;;;;;;;14.95;100.00;100899.19;5052240;28;20104;-47
2023/07/31 00:50:46;;;;;;;0.10;0.10;;;;;;;14.93;100.00;100896.59;5053052;28;20473;-49
2023/07/31 00:53:13;;;;;;;0.10;0.10;;;;;;;14.93;100.00;100895.72;5053061;28;20021;-49
2023/07/31 00:55:38;;;;;;;0.15;0.15;;;;;;;14.93;100.00;100895.72;5051954;28;20029;-49
2023/07/31 00:58:03;;;;;;;0.20;0.20;;;;;;;14.94;100.00;100889.69;5052882;28;20033;-48
2023/07/31 01:00:29;;;;;;;0.20;0.20;;;;;;;14.93;100.00;100887.94;5052626;28;20025;-49
2023/07/31 01:02:54;;;;;;;0.10;0.10;;;;;;;14.93;100.00;100885.34;5052045;28;20017;-49
2023/07/31 01:05:29;;;;;;;0.10;0.10;;;;;;;14.93;100.00;100891.41;5052879;28;20032;-48
2023/07/31 01:08:18;;;;;;;0.10;0.10;;;;;;;14.96;100.00;100885.38;5052834;28;20024;-48
2023/07/31 01:10:54;;;;;;;0.10;0.10;;;;;;;14.93;100.00;100882.75;5052011;28;20090;-47
2023/07/31 01:13:19;;;;;;;0.10;0.10;;;;;;;14.93;100.00;100885.34;5052686;28;20060;-47
2023/07/31 01:15:44;;;;;;;0.25;0.10;;;;;;;14.94;100.00;100881.91;5051942;28;20068;-45
2023/07/31 01:18:09;;;;;;;0.15;0.15;;;;;;;14.93;100.00;100883.63;5052636;28;20029;-49
2023/07/31 01:20:37;;;;;;;0.10;0.10;;;;;;;14.92;100.00;100878.41;5052591;28;20100;-48
2023/07/31 01:23:08;;;;;;;0.10;0.10;;;;;;;14.92;100.00;100883.59;5051867;28;20104;-49
2023/07/31 01:25:51;;;;;;;0.15;0.15;;;;;;;14.93;100.00;100880.16;5052313;28;20032;-48
2023/07/31 01:28:40;;;;;;;0.10;0.10;;;;;;;14.94;100.00;100889.69;5052781;28;20028;-48
2023/07/31 01:31:08;;;;;;;0.20;0.20;;;;;;;14.93;100.00;100885.34;5051730;28;20104;-48
2023/07/31 01:33:35;;;;;;;0.10;0.10;;;;;;;14.91;100.00;100887.03;5052286;28;20029;-48
2023/07/31 01:36:01;;;;;;;0.10;0.10;;;;;;;14.91;100.00;100887.94;5052418;28;20025;-48
2023/07/31 01:38:26;;;;;;;0.10;0.10;;;;;;;14.91;100.00;100897.44;5051571;28;20392;-48
2023/07/31 01:40:53;;;;;;;0.20;0.20;;;;;;;14.91;100.00;100889.63;5052727;28;20377;-48
2023/07/31 01:43:18;;;;;;;0.10;0.10;;;;;;;14.89;100.00;100879.25;5051973;28;20503;-47
2023/07/31 01:45:44;;;;;;;0.10;0.10;;;;;;;14.90;100.00;100880.09;5051686;28;20021;-44
2023/07/31 01:48:09;;;;;;;0.10;0.10;;;;;;;14.91;100.00;100877.56;5052458;28;20434;-46
2023/07/31 01:50:34;;;;;;;0.10;0.10;;;;;;;14.89;100.00;100873.19;5051852;28;20033;-48
2023/07/31 01:53:00;;;;;;;0.20;0.20;;;;;;;14.90;100.00;100872.31;5051695;28;20111;-48
2023/07/31 01:55:25;;;;;;;0.13;0.13;;;;;;;14.86;100.00;100862.75;5051973;28;20057;-50
2023/07/31 01:57:52;;;;;;;0.10;0.10;;;;;;;14.84;100.00;100874.88;5052207;28;20025;-48
2023/07/31 02:00:17;;;;;;;0.20;0.20;;;;;;;14.81;100.00;100871.38;5051677;28;20100;-47
2023/07/31 02:02:43;;;;;;;0.10;0.10;;;;;;;14.80;100.00;100855.78;5051931;28;20111;-49
2023/07/31 02:05:08;;;;;;;0.10;0.10;;;;;;;14.78;100.00;100850.59;5051383;28;20025;-44
2023/07/31 02:07:34;;;;;;;0.10;0.10;;;;;;;14.77;100.00;100859.22;5051860;28;20048;-46
2023/07/31 02:09:59;;;;;;;0.20;0.20;;;;;;;14.76;100.00;100852.28;5054111;28;20389;-49
2023/07/31 02:12:24;;;;;;;0.10;0.10;;;;;;;14.75;100.00;100845.34;5055030;28;20477;-48
2023/07/31 02:14:50;;;;;;;0.10;0.10;;;;;;;14.75;100.00;100847.06;5056024;28;20103;-49
2023/07/31 02:17:15;;;;;;;0.10;0.10;;;;;;;14.75;100.00;100840.16;5055861;28;20025;-46
2023/07/31 02:19:40;;;;;;;0.10;0.10;;;;;;;14.72;100.00;100840.13;5054854;28;20048;-48
2023/07/31 02:22:06;;;;;;;0.15;0.15;;;;;;;14.71;100.00;100837.53;5055613;28;20544;-46
2023/07/31 02:24:31;;;;;;;0.10;0.10;;;;;;;14.71;100.00;100833.19;5055654;28;20025;-49
2023/07/31 02:26:57;;;;;;;0.20;0.20;;;;;;;14.70;100.00;100840.97;5054971;28;20028;-47
2023/07/31 02:29:22;;;;;;;0.10;0.10;;;;;;;14.70;100.00;100836.63;5055474;28;20017;-43
2023/07/31 02:31:47;;;;;;;0.20;0.20;;;;;;;14.69;100.00;100832.28;5055707;28;20032;-46
2023/07/31 02:34:13;;;;;;;0.13;0.13;;;;;;;14.69;100.00;100832.28;5054788;28;20523;-47
2023/07/31 02:36:38;;;;;;;0.10;0.10;;;;;;;14.69;100.00;100824.50;5055044;28;20025;-48
2023/07/31 02:39:03;;;;;;;0.13;0.13;;;;;;;14.68;100.00;100825.38;5055229;28;20025;-47
2023/07/31 02:41:29;;;;;;;0.10;0.10;;;;;;;14.67;100.00;100826.22;5054518;28;20135;-49
2023/07/31 02:43:54;;;;;;;0.10;0.10;;;;;;;14.67;100.00;100821.03;5055236;28;20501;-49
2023/07/31 02:46:20;;;;;;;0.10;0.10;;;;;;;14.67;100.00;100821.03;5055195;28;20086;-48
2023/07/31 02:48:45;;;;;;;0.10;0.10;;;;;;;14.68;100.00;100821.91;5054395;28;20076;-45
2023/07/31 02:51:10;;;;;;;0.20;0.20;;;;;;;14.68;100.00;100817.59;5055150;28;20025;-48
2023/07/31 02:53:36;;;;;;;0.10;0.10;;;;;;;14.68;100.00;100806.34;5054544;28;20021;-47
2023/07/31 02:56:01;;;;;;;0.10;0.10;;;;;;;14.68;100.00;100822.78;5054822;28;20491;-48
2023/07/31 02:58:26;;;;;;;0.10;0.10;;;;;;;14.67;100.00;100813.25;5055039;28;20017;-48
2023/07/31 03:00:52;;;;;;;0.20;0.20;;;;;;;14.66;100.00;100819.28;5054646;28;20365;-48
2023/07/31 03:03:17;;;;;;;0.10;0.10;;;;;;;14.63;100.00;100816.63;5054485;28;20029;-48
2023/07/31 03:05:42;;;;;;;0.10;0.10;;;;;;;14.61;100.00;100808.81;5054640;28;20381;-48
2023/07/31 03:08:08;;;;;;;0.10;0.10;;;;;;;14.61;100.00;100811.41;5054570;28;20519;-45
2023/07/31 03:10:33;;;;;;;0.10;0.10;;;;;;;14.62;100.00;100812.28;5054120;28;20114;-45
2023/07/31 03:12:58;;;;;;;0.10;0.10;;;;;;;14.63;100.00;100817.50;5055033;28;20028;-47
2023/07/31 03:15:23;;;;;;;0.20;0.20;;;;;;;14.65;100.00;100822.72;5053588;28;20396;-47
2023/07/31 03:17:49;;;;;;;0.20;0.20;;;;;;;14.67;100.00;100813.25;5054707;28;20031;-48
2023/07/31 03:20:14;;;;;;;0.10;0.10;;;;;;;14.69;100.00;100811.53;5054155;28;20025;-47
2023/07/31 03:22:39;;;;;;;0.20;0.20;;;;;;;14.66;100.00;100806.31;5053133;28;20020;-48
2023/07/31 03:25:05;;;;;;;0.10;0.10;;;;;;;14.68;100.00;100811.53;5054516;28;20037;-46
2023/07/31 03:27:31;;;;;;;0.10;0.10;;;;;;;14.65;100.00;100814.94;5054395;28;20025;-45
2023/07/31 03:29:56;;;;;;;0.10;0.10;;;;;;;14.66;100.00;100803.72;5053839;28;20436;-47
2023/07/31 03:32:21;;;;;;;0.20;0.20;;;;;;;14.65;100.00;100805.47;5054465;28;20495;-48
2023/07/31 03:34:47;;;;;;;0.10;0.10;;;;;;;14.65;100.00;100802.88;5054064;28;20036;-47
2023/07/31 03:37:12;;;;;;;0.20;0.20;;;;;;;14.62;100.00;100792.41;5053470;28;20075;-48
2023/07/31 03:39:38;;;;;;;0.10;0.10;;;;;;;14.63;100.00;100786.38;5054163;28;20090;-47
2023/07/31 03:42:03;;;;;;;0.10;0.10;;;;;;;14.64;100.00;100784.66;5053786;28;20095;-45
2023/07/31 03:44:28;;;;;;;0.10;0.10;;;;;;;14.65;100.00;100784.72;5053473;28;20520;-46
2023/07/31 03:46:54;;;;;;;0.20;0.20;;;;;;;14.66;100.00;100782.97;5054233;28;20515;-44
2023/07/31 03:49:19;;;;;;;0.20;0.20;;;;;;;14.65;100.00;100784.72;5054007;28;20472;-46
2023/07/31 03:51:45;;;;;;;0.10;0.10;;;;;;;14.68;100.00;100776.09;5053111;28;20055;-48
2023/07/31 03:54:10;;;;;;;0.10;0.10;;;;;;;14.67;100.00;100774.34;5053905;28;20107;-48
2023/07/31 03:56:35;;;;;;;0.10;0.10;;;;;;;14.69;100.00;100775.22;5053363;28;20025;-46
2023/07/31 03:59:01;;;;;;;0.10;0.10;;;;;;;14.71;100.00;100770.94;5053226;28;20453;-48
2023/07/31 04:01:26;;;;;;;0.20;0.20;;;;;;;14.75;100.00;100767.50;5053529;28;20032;-46
2023/07/31 04:03:51;;;;;;;0.10;0.10;;;;;;;14.77;100.00;100762.34;5053627;28;20032;-48
2023/07/31 04:06:18;;;;;;;0.20;0.20;;;;;;;14.80;100.00;100767.56;5053051;28;20029;-44
2023/07/31 04:08:46;;;;;;;0.17;0.17;;;;;;;14.81;100.00;100764.13;5053640;28;20122;-48
2023/07/31 04:11:14;;;;;;;0.10;0.10;;;;;;;14.82;100.00;100756.34;5053747;28;20107;-49
2023/07/31 04:13:40;;;;;;;0.10;0.10;;;;;;;14.86;100.00;100753.78;5052883;28;20066;-48
2023/07/31 04:16:05;;;;;;;0.20;0.20;;;;;;;14.87;100.00;100755.53;5053645;28;20029;-47
2023/07/31 04:18:31;;;;;;;0.10;0.10;;;;;;;14.89;100.00;100759.03;5052988;28;20017;-47
2023/07/31 04:20:58;;;;;;;0.10;0.10;;;;;;;14.89;100.00;100759.03;5053153;28;20032;-46
2023/07/31 04:23:23;;;;;;;0.20;0.20;;;;;;;14.92;100.00;100744.34;5053412;28;20057;-45
2023/07/31 04:25:49;;;;;;;0.10;0.10;;;;;;;14.95;100.00;100744.38;5052764;28;20100;-44
2023/07/31 04:28:14;;;;;;;0.10;0.10;;;;;;;14.98;100.00;100743.53;5053296;28;20441;-48
2023/07/31 04:30:39;;;;;;;0.20;0.20;;;;;;;15.00;100.00;100748.75;5053075;28;20032;-47
2023/07/31 04:33:05;;;;;;;0.10;0.10;;;;;;;15.03;100.00;100741.84;5052183;28;20061;-43
2023/07/31 04:35:30;;;;;;;0.10;0.10;;;;;;;15.05;100.00;100750.50;5053058;28;20090;-46
2023/07/31 04:37:55;;;;;;;0.10;0.10;;;;;;;15.06;100.00;100746.22;5053029;28;20060;-48
2023/07/31 04:40:21;;;;;;;0.10;0.10;;;;;;;15.06;100.00;100741.88;5052541;28;20029;-45
2023/07/31 04:42:47;;;;;;;0.10;0.10;;;;;;;15.04;100.00;100740.13;5052726;28;20072;-49
2023/07/31 04:45:12;;;;;;;0.10;0.10;;;;;;;15.05;100.00;100728.88;5052854;28;20041;-44
2023/07/31 04:47:37;;;;;;;0.10;0.10;;;;;;;15.03;100.00;100730.59;5052185;28;20025;-44
2023/07/31 04:50:03;;;;;;;0.10;0.10;;;;;;;15.02;100.00;100732.31;5053077;28;20017;-45
2023/07/31 04:52:28;;;;;;;0.10;0.10;;;;;;;15.04;100.00;100725.44;5052796;28;20028;-44
2023/07/31 04:54:53;;;;;;;0.10;0.10;;;;;;;15.03;100.00;100726.28;5052346;28;20539;-48
2023/07/31 04:57:19;;;;;;;0.10;0.10;;;;;;;15.05;100.00;100713.31;5052755;28;20078;-45
2023/07/31 04:59:44;;;;;;;0.10;0.10;;;;;;;15.06;100.00;100717.66;5052409;28;20142;-44
2023/07/31 05:02:12;;;;;;;0.13;0.13;;;;;;;15.07;100.00;100717.66;5052304;28;20032;-48
2023/07/31 05:04:37;;;;;;;;;;;;;;;15.14;100.00;100716.88;5052925;28;20059;-44
2023/07/31 05:07:02;;;;;;;0.10;0.10;;;;;;;15.12;100.00;100705.59;5052792;28;19963;-48
2023/07/31 05:09:27;;;;;;;0.10;0.10;;;;;;;15.13;100.00;100704.75;5051778;28;20307;-49
2023/07/31 05:11:53;;;;;;;0.10;0.10;;;;;;;15.14;100.00;100711.69;5052804;28;20492;-48
2023/07/31 05:14:18;;;;;;;0.20;0.20;;;;;;;15.15;100.00;100710.81;5052622;28;20024;-48
2023/07/31 05:16:43;;;;;;;0.10;0.10;;;;;;;15.17;100.00;100702.16;5051730;28;20057;-49
2023/07/31 05:19:09;;;;;;;0.20;0.20;;;;;;;15.16;100.00;100698.72;5052619;28;20029;-48
2023/07/31 05:21:34;;;;;;;0.10;0.10;;;;;;;15.19;100.00;100695.28;5052013;28;20116;-48
2023/07/31 05:23:59;;;;;;;0.10;0.10;;;;;;;15.17;100.00;100697.88;5052150;28;20127;-48
2023/07/31 05:26:25;;;;;;;0.10;0.10;;;;;;;15.18;100.00;100698.72;5052479;28;20033;-47
2023/07/31 05:28:50;;;;;;;0.20;0.20;;;;;;;15.17;100.00;100702.16;5052396;28;20068;-43
2023/07/31 05:31:15;;;;;;;0.10;0.10;;;;;;;15.17;100.00;100702.16;5052040;28;20022;-46
2023/07/31 05:33:41;;;;;;;0.10;0.10;;;;;;;15.14;100.00;100696.13;5052158;28;20025;-46
2023/07/31 05:36:06;;;;;;;0.10;0.10;;;;;;;15.17;100.00;100707.34;5051532;28;20033;-48
2023/07/31 05:38:31;;;;;;;0.10;0.10;;;;;;;15.14;100.00;100698.72;5052451;28;20025;-46
2023/07/31 05:40:57;;;;;;;0.10;0.10;;;;;;;15.13;100.00;100689.19;5052520;28;20029;-46
2023/07/31 05:43:22;;;;;;;0.10;0.10;;;;;;;15.14;100.00;100697.81;5051482;28;20556;-43
2023/07/31 05:45:47;;;;;;;0.10;0.10;;;;;;;15.11;100.00;100683.09;5055634;28;20029;-49
2023/07/31 05:48:13;;;;;;;0.10;0.10;;;;;;;15.10;100.00;100681.34;5056538;28;20029;-48
2023/07/31 05:50:39;;;;;;;0.10;0.10;;;;;;;15.09;100.00;100679.63;5055274;28;20086;-47
2023/07/31 05:53:05;;;;;;;0.10;0.10;;;;;;;15.07;100.00;100673.53;5056659;28;20024;-47
2023/07/31 05:55:30;;;;;;;0.10;0.10;;;;;;;15.03;100.00;100676.97;5055877;28;20423;-44
2023/07/31 05:57:55;;;;;;;0.10;0.10;;;;;;;15.01;100.00;100659.66;5055847;28;20120;-50
2023/07/31 06:00:21;;;;;;;0.10;0.10;;;;;;;14.98;100.00;100671.72;5056297;28;20032;-48
2023/07/31 06:02:47;;;;;;;0.10;0.10;;;;;;;14.97;100.00;100669.97;5055674;28;20059;-46
2023/07/31 06:05:13;;;;;;;0.10;0.10;;;;;;;14.97;100.00;100667.41;5055546;28;20021;-44
2023/07/31 06:07:38;;;;;;;0.10;0.10;;;;;;;14.99;100.00;100667.44;5055964;28;20483;-48
2023/07/31 06:10:04;;;;;;;0.10;0.10;;;;;;;14.97;100.00;100666.53;5056023;28;20053;-47
2023/07/31 06:12:30;;;;;;;0.10;0.10;;;;;;;15.01;100.00;100662.25;5055377;28;20075;-50
2023/07/31 06:14:56;;;;;;;0.10;0.10;;;;;;;15.00;100.00;100661.34;5056109;28;20025;-46
2023/07/31 06:17:21;;;;;;;0.10;0.10;;;;;;;15.01;100.00;100655.31;5055562;28;20166;-48
2023/07/31 06:19:47;;;;;;;0.10;0.10;;;;;;;15.00;100.00;100660.50;5054941;28;20029;-50
2023/07/31 06:22:12;;;;;;;0.10;0.10;;;;;;;15.05;100.00;100667.47;5055921;28;20033;-48
2023/07/31 06:24:37;;;;;;;0.10;0.10;;;;;;;15.04;100.00;100659.66;5055444;28;20117;-48
2023/07/31 06:27:03;;;;;;;0.10;0.10;;;;;;;15.03;100.00;100652.72;5055313;28;20025;-49
2023/07/31 06:29:29;;;;;;;0.10;0.10;;;;;;;15.08;100.00;100651.03;5055541;28;20100;-47
2023/07/31 06:31:55;;;;;;;0.10;0.10;;;;;;;15.08;100.00;100654.53;5055277;28;20100;-48
2023/07/31 06:34:20;;;;;;;0.10;0.10;;;;;;;15.08;100.00;100653.63;5054914;28;20029;-43
2023/07/31 06:36:46;;;;;;;0.10;0.10;;;;;;;15.10;100.00;100646.75;5055280;28;20116;-45
2023/07/31 06:39:11;;;;;;;0.10;0.10;;;;;;;15.12;100.00;100648.50;5055474;28;20053;-48
2023/07/31 06:41:37;;;;;;;0.10;0.10;;;;;;;15.16;100.00;100652.00;5054718;28;20021;-49
2023/07/31 06:44:03;;;;;;;0.10;0.10;;;;;;;15.18;100.00;100641.59;5055469;28;20056;-48
2023/07/31 06:46:28;;;;;;;0.10;0.10;;;;;;;15.18;100.00;100642.47;5054492;28;20033;-48
2023/07/31 06:48:54;;;;;;;0.10;0.10;;;;;;;15.22;100.00;100632.97;5055221;28;20032;-48
2023/07/31 06:51:19;;;;;;;0.10;0.10;;;;;;;15.22;100.00;100633.88;5055084;28;20457;-47
2023/07/31 06:53:45;;;;;;;0.10;0.10;;;;;;;15.21;100.00;100620.84;5054295;28;20029;-47
2023/07/31 06:56:10;;;;;;;0.10;0.10;;;;;;;15.22;100.00;100625.19;5054850;28;20055;-49
2023/07/31 06:58:36;;;;;;;0.10;0.10;;;;;;;15.21;100.00;100631.22;5054833;28;20033;-48
2023/07/31 07:01:01;;;;;;;0.10;0.10;;;;;;;15.22;100.00;100627.78;5054597;28;20071;-48
2023/07/31 07:03:27;;;;;;;0.10;0.10;;;;;;;15.24;100.00;100626.09;5054836;28;20033;-48
2023/07/31 07:05:52;;;;;;;0.10;0.10;;;;;;;15.25;100.00;100623.50;5054719;28;20102;-47
2023/07/31 07:08:17;;;;;;;0.10;0.10;;;;;;;15.31;100.00;100627.84;5054536;28;20027;-48
2023/07/31 07:10:43;;;;;;;0.10;0.10;;;;;;;15.31;100.00;100617.44;5054911;28;20031;-48
2023/07/31 07:13:08;;;;;;;0.10;0.10;;;;;;;15.31;100.00;100622.66;5054584;28;20029;-48
2023/07/31 07:15:33;;;;;;;0.10;0.10;;;;;;;15.31;100.00;100622.66;5054162;28;20025;-49
2023/07/31 07:17:59;;;;;;;0.10;0.10;;;;;;;15.32;100.00;100616.59;5054804;28;20049;-48
2023/07/31 07:20:24;;;;;;;0.10;0.10;;;;;;;15.35;100.00;100619.25;5054412;28;20018;-48
2023/07/31 07:22:50;;;;;;;0.10;0.10;;;;;;;15.41;100.00;100614.06;5054328;28;20017;-48
2023/07/31 07:25:15;;;;;;;0.10;0.10;;;;;;;15.40;100.00;100614.94;5054756;28;20037;-48
2023/07/31 07:27:41;;;;;;;0.10;0.10;;;;;;;15.41;100.00;100614.06;5054196;28;20025;-48
2023/07/31 07:30:06;;;;;;;0.10;0.10;;;;;;;15.43;100.00;100599.38;5053974;28;20538;-48
2023/07/31 07:32:32;;;;;;;0.10;0.10;;;;;;;15.40;100.00;100609.75;5054091;28;20107;-47
2023/07/31 07:34:57;;;;;;;0.10;0.10;;;;;;;15.42;100.00;100615.81;5054086;28;20082;-45
2023/07/31 07:37:22;;;;;;;0.00;0.00;;;;;;;15.45;100.00;100608.06;5053169;28;20039;-47
2023/07/31 07:39:48;;;;;;;0.00;0.00;;;;;;;15.47;100.00;100608.91;5053965;28;20052;-47
2023/07/31 07:42:13;;;;;;;0.10;0.10;;;;;;;15.45;100.00;100604.56;5052541;28;20064;-46
2023/07/31 07:44:39;;;;;;;0.08;0.08;;;;;;;15.41;100.00;100605.41;5052935;28;20045;-49
2023/07/31 07:47:06;;;;;;;0.10;0.10;;;;;;;15.40;100.00;100614.94;5054304;28;20033;-44
2023/07/31 07:49:33;;;;;;;0.10;0.10;;;;;;;15.41;100.00;100613.19;5053688;28;20370;-47
2023/07/31 07:51:58;;;;;;;0.10;0.10;;;;;;;15.36;100.00;100610.56;5053451;28;20444;-48
2023/07/31 07:54:24;;;;;;;0.10;0.10;;;;;;;15.43;100.00;100604.56;5053842;28;20076;-45
2023/07/31 07:56:49;;;;;;;0.10;0.10;;;;;;;15.48;100.00;100604.59;5053366;28;20106;-46
2023/07/31 07:59:15;;;;;;;0.10;0.10;;;;;;;15.43;100.00;100607.16;5054040;28;20029;-48
2023/07/31 08:01:40;;;;;;;0.10;0.10;;;;;;;15.51;100.00;100603.75;5053471;28;20029;-44
2023/07/31 08:04:05;;;;;;;0.00;0.00;;;;;;;15.45;100.00;100602.84;5053275;28;20024;-44
2023/07/31 08:06:31;;;;;;;0.10;0.10;;;;;;;15.46;100.00;100599.38;5053355;28;20021;-47
2023/07/31 08:08:56;;;;;;;0.10;0.10;;;;;;;15.44;100.00;100601.09;5053254;28;20102;-50
2023/07/31 08:11:23;;;;;;;0.10;0.10;;;;;;;15.41;100.00;100601.06;5053195;28;20021;-48
2023/07/31 08:13:49;;;;;;;0.10;0.10;;;;;;;15.42;100.00;100599.38;5053741;28;20045;-43
2023/07/31 08:16:14;;;;;;;0.10;0.10;;;;;;;15.45;100.00;100588.97;5053178;28;20114;-44
2023/07/31 08:18:40;;;;;;;0.10;0.10;;;;;;;15.46;100.00;100601.97;5052909;28;20392;-46
2023/07/31 08:21:05;;;;;;;0.10;0.10;;;;;;;15.48;100.00;100600.25;5053564;28;20075;-48
2023/07/31 08:23:31;;;;;;;0.10;0.10;;;;;;;15.53;100.00;100596.81;5053156;28;20115;-47
2023/07/31 08:25:56;;;;;;;0.10;0.10;;;;;;;15.48;100.00;100584.69;5053050;28;20024;-43
2023/07/31 08:28:22;;;;;;;0.10;0.10;;;;;;;15.51;100.00;100602.00;5053578;28;20461;-44
2023/07/31 08:30:47;;;;;;;0.10;0.10;;;;;;;15.48;100.00;100595.06;5052947;28;20473;-47
2023/07/31 08:33:12;;;;;;;0.10;0.10;;;;;;;15.49;100.00;100595.91;5052992;28;20027;-44
2023/07/31 08:35:38;;;;;;;0.10;0.10;;;;;;;15.56;100.00;100602.03;5052975;28;20029;-45
2023/07/31 08:38:03;;;;;;;0.10;0.10;;;;;;;15.57;100.00;100593.38;5053012;28;20029;-44
2023/07/31 08:40:28;;;;;;;0.10;0.10;;;;;;;15.55;100.00;100597.69;5052568;28;20028;-43
2023/07/31 08:43:02;;;;;;;0.10;0.10;;;;;;;15.52;100.00;100595.06;5052895;28;20060;-44
2023/07/31 08:45:27;;;;;;;0.10;0.10;;;;;;;15.47;100.00;100592.47;5052647;28;20074;-44
2023/07/31 08:47:53;;;;;;;0.10;0.10;;;;;;;15.53;100.00;100599.41;5052837;28;20017;-47
2023/07/31 08:50:20;;;;;;;0.10;0.10;;;;;;;15.51;100.00;100589.03;5052887;28;20530;-48
2023/07/31 08:52:47;;;;;;;0.10;0.10;;;;;;;15.49;100.00;100598.53;5052450;28;20389;-44
2023/07/31 08:55:13;;;;;;;0.10;0.10;;;;;;;15.47;100.00;100595.06;5052399;28;20028;-44
2023/07/31 08:57:39;;;;;;;0.10;0.10;;;;;;;15.45;100.00;100608.06;5052528;28;20059;-44
2023/07/31 09:00:06;;;;;;;0.10;0.10;;;;;;;15.46;100.00;100595.91;5051954;28;20020;-48
2023/07/31 09:02:39;;;;;;;0.10;0.10;;;;;;;15.50;100.00;100596.81;5052358;28;20025;-47
2023/07/31 09:05:07;;;;;;;0.10;0.10;;;;;;;15.53;100.00;100592.50;5052452;28;20029;-47
2023/07/31 09:07:34;;;;;;;0.10;0.10;;;;;;;15.53;100.00;100597.69;5051715;28;20370;-46
2023/07/31 09:09:59;;;;;;;0.10;0.10;;;;;;;15.54;100.00;100593.38;5052812;28;20028;-46
2023/07/31 09:12:25;;;;;;;0.10;0.10;;;;;;;15.54;100.00;100590.75;5052262;28;20025;-48
2023/07/31 09:14:51;;;;;;;0.10;0.10;;;;;;;15.60;100.00;100598.59;5052154;28;20021;-47
2023/07/31 09:17:37;;;;;;;0.10;0.10;;;;;;;15.60;100.00;100588.19;5052747;28;20025;-46
2023/07/31 09:20:17;;;;;;;0.10;0.10;;;;;;;15.65;100.00;100586.50;5052475;28;20100;-44
2023/07/31 09:22:43;;;;;;;0.10;0.10;;;;;;;15.75;100.00;100588.28;5051685;28;20033;-45
2023/07/31 09:25:22;;;;;;;0.10;0.10;;;;;;;15.79;100.00;100594.34;5052459;28;20025;-46
2023/07/31 09:27:47;;;;;;;0.10;0.10;;;;;;;15.85;100.00;100583.13;5052668;28;20020;-46
2023/07/31 09:30:13;;;;;;;0.10;0.10;;;;;;;15.93;100.00;100584.00;5051902;28;20040;-48
2023/07/31 09:32:39;;;;;;;0.10;0.10;;;;;;;15.95;100.00;100584.91;5052304;28;20460;-43
2023/07/31 09:35:21;;;;;;;0.10;0.10;;;;;;;16.06;100.00;100578.00;5052191;28;20029;-45
2023/07/31 09:37:51;;;;;;;0.10;0.10;;;;;;;16.08;100.00;100576.25;5052032;28;20428;-44
2023/07/31 09:40:32;;;;;;;0.10;0.10;;;;;;;16.20;100.00;100579.75;5052344;28;20100;-45
2023/07/31 09:43:02;;;;;;;0.10;0.10;;;;;;;16.21;100.00;100582.34;5051662;28;20489;-44
2023/07/31 09:45:29;;;;;;;0.10;0.10;;;;;;;16.21;100.00;100571.09;5052133;28;20112;-46
2023/07/31 09:47:56;;;;;;;0.10;0.10;;;;;;;16.27;100.00;100571.97;5051983;28;20036;-46
2023/07/31 09:50:23;;;;;;;0.10;0.10;;;;;;;16.34;100.00;100575.44;5051981;28;20052;-47
2023/07/31 09:52:50;;;;;;;0.00;0.00;;;;;;;16.35;100.00;100573.75;5052181;28;20500;-44
2023/07/31 09:55:16;;;;;;;0.00;0.00;;;;;;;16.41;100.00;100574.59;5052167;28;20033;-49
2023/07/31 09:57:44;;;;;;;0.00;0.00;;;;;;;16.49;100.00;100571.13;5051281;28;20039;-44
2023/07/31 10:00:10;;;;;;;0.10;0.10;;;;;;;16.53;100.00;100567.69;5052207;28;20079;-46
2023/07/31 10:02:38;;;;;;;0.10;0.10;;;;;;;16.55;100.00;100572.03;5051707;28;20036;-49
2023/07/31 10:05:05;;;;;;;0.10;0.10;;;;;;;16.62;100.00;100572.88;5051911;28;20036;-49
2023/07/31 10:07:32;;;;;;;0.10;0.10;;;;;;;16.56;100.00;100567.66;5052147;28;20049;-46
2023/07/31 10:09:59;;;;;;;0.10;0.10;;;;;;;16.54;100.00;100567.69;5052051;28;20029;-45
2023/07/31 10:12:28;;;;;;;0.10;0.10;;;;;;;16.62;100.00;100562.47;5051410;28;20025;-48
2023/07/31 10:14:54;;;;;;;0.00;0.00;;;;;;;16.74;100.00;100561.59;5052219;28;20131;-43
2023/07/31 10:17:22;;;;;;;0.10;0.10;;;;;;;16.96;100.00;100562.47;5051433;28;20051;-46
2023/07/31 10:19:49;;;;;;;0.10;0.10;;;;;;;17.32;100.00;100560.66;5052209;28;20028;-47
2023/07/31 10:22:14;;;;;;;0.00;0.00;;;;;;;17.56;100.00;100558.88;5051939;28;20021;-48
2023/07/31 10:24:42;;;;;;;0.08;0.08;;;;;;;17.61;100.00;100557.09;5051347;28;20183;-47
2023/07/31 10:27:09;;;;;;;0.05;0.05;;;;;;;17.53;100.00;100549.31;5052226;28;20052;-46
2023/07/31 10:29:36;;;;;;;0.10;0.10;;;;;;;17.51;100.00;100555.41;5051610;28;20393;-44
2023/07/31 10:32:06;;;;;;;0.10;0.10;;;;;;;17.55;100.00;100557.13;5054750;28;20465;-47
2023/07/31 10:34:33;;;;;;;0.10;0.10;;;;;;;17.57;100.00;100560.56;5055676;28;20052;-43
2023/07/31 10:37:24;;;;;;;0.00;0.00;;;;;;;17.75;100.00;100560.53;5055338;28;20380;-47
2023/07/31 10:39:56;;;;;;;0.00;0.00;;;;;;;17.87;100.00;100558.69;5055211;28;20064;-49
2023/07/31 10:42:32;;;;;;;0.00;0.00;;;;;;;17.96;100.00;100563.94;5055859;28;20025;-43
2023/07/31 10:44:59;;;;;;;0.10;0.10;;;;;;;18.00;100.00;100564.75;5055683;28;20052;-44
2023/07/31 10:47:24;;;;;;;0.10;0.10;;;;;;;18.11;100.00;100555.13;5054924;28;20021;-48
2023/07/31 10:49:50;;;;;;;0.10;0.10;;;;;;;18.09;100.00;100551.69;5055689;28;20231;-48
2023/07/31 10:52:23;;;;;;;0.00;0.00;;;;;;;17.96;100.00;100563.94;5055225;28;20545;-45
2023/07/31 10:54:50;;;;;;;0.10;0.10;;;;;;;17.80;100.00;100559.63;5054863;28;20100;-47
2023/07/31 10:57:20;;;;;;;0.00;0.00;;;;;;;17.68;100.00;100560.56;5055211;28;20021;-45
2023/07/31 10:59:45;;;;;;;0.00;0.00;;;;;;;17.63;100.00;100552.75;5054599;28;20092;-45
2023/07/31 11:02:26;;;;;;;0.00;0.00;;;;;;;17.59;100.00;100557.09;5055384;28;20492;-44
2023/07/31 11:05:09;;;;;;;0.10;0.10;;;;;;;17.54;100.00;100568.41;5055172;28;20029;-49
2023/07/31 11:07:47;;;;;;;0.00;0.00;;;;;;;17.49;100.00;100562.34;5054468;28;20055;-48
2023/07/31 11:10:16;;;;;;;0.10;0.10;;;;;;;17.38;100.00;100558.06;5055179;28;20053;-48
2023/07/31 11:12:42;;;;;;;0.00;0.00;;;;;;;17.41;100.00;100554.56;5054621;28;20108;-44
2023/07/31 11:15:08;;;;;;;0.10;0.10;;;;;;;17.66;100.00;100547.50;5054441;28;20099;-48